Time;durP1;ratioP1;P1;durP2;ratioP2;P2;SDS_P1;SDS_P2;PMS_P1;PMS_P2;Temp;Humidity;BMP_temperature;BMP_pressure;BME280_temperature;BME280_humidity;BME280_pressure;Samples;Min_cycle;Max_cycle;Signal;HPM_P1;HPM_P2
2021/12/10 00:01:50;;;;;;;4.30;1.83;;;2.80;99.90;;;;;;6173149;23;20492;-87
2021/12/10 00:04:20;;;;;;;2.97;1.70;;;2.70;99.90;;;;;;6173413;23;20741;-87
2021/12/10 00:06:51;;;;;;;7.00;1.90;;;2.60;99.90;;;;;;6173268;23;20385;-87
2021/12/10 00:09:24;;;;;;;1.53;1.37;;;2.60;99.90;;;;;;6173128;23;20401;-87
2021/12/10 00:11:54;;;;;;;4.00;1.70;;;2.50;99.90;;;;;;6173020;23;20453;-87
2021/12/10 00:14:26;;;;;;;2.60;1.53;;;2.40;99.90;;;;;;6174078;23;20425;-87
2021/12/10 00:16:53;;;;;;;1.70;1.57;;;2.40;99.90;;;;;;6202676;23;20386;-87
2021/12/10 00:21:48;;;;;;;2.03;1.70;;;2.40;99.90;;;;;;6202771;23;20395;-86
2021/12/10 00:24:15;;;;;;;2.33;1.40;;;2.40;99.90;;;;;;6173331;23;20446;-87
2021/12/10 00:26:42;;;;;;;3.70;1.57;;;2.30;99.90;;;;;;6174987;23;20745;-87
2021/12/10 00:29:08;;;;;;;2.80;1.60;;;2.30;99.90;;;;;;6170153;23;21309;-87
2021/12/10 00:31:46;;;;;;;5.00;1.70;;;2.30;99.90;;;;;;6175456;23;20446;-86
2021/12/10 00:34:18;;;;;;;3.87;1.53;;;2.20;99.90;;;;;;6170708;23;20452;-86
2021/12/10 00:36:46;;;;;;;6.53;1.90;;;2.10;99.90;;;;;;6175438;23;20441;-86
2021/12/10 00:39:21;;;;;;;3.27;1.90;;;2.10;99.90;;;;;;6172928;23;20420;-86
2021/12/10 00:41:48;;;;;;;3.80;1.67;;;2.10;99.90;;;;;;6151496;23;20406;-86
2021/12/10 00:44:14;;;;;;;3.67;1.70;;;2.00;99.90;;;;;;6198972;23;20771;-86
2021/12/10 00:46:43;;;;;;;4.43;2.03;;;1.90;99.90;;;;;;6172072;23;20410;-86
2021/12/10 00:49:10;;;;;;;5.40;1.83;;;1.90;99.90;;;;;;6201022;23;20899;-87
2021/12/10 00:51:39;;;;;;;2.80;1.97;;;1.90;99.90;;;;;;6148326;23;20952;-87
2021/12/10 00:54:07;;;;;;;1.90;1.57;;;1.80;99.90;;;;;;6199391;23;20398;-87
2021/12/10 00:56:33;;;;;;;3.27;1.80;;;1.70;99.90;;;;;;6175405;23;20819;-87
2021/12/10 00:58:59;;;;;;;2.30;1.80;;;1.70;99.90;;;;;;6175025;23;20398;-87
2021/12/10 01:01:28;;;;;;;4.60;1.93;;;1.70;99.90;;;;;;6173297;23;20932;-87
2021/12/10 01:04:13;;;;;;;4.67;1.70;;;1.60;99.90;;;;;;6174697;23;20754;-87
2021/12/10 01:06:44;;;;;;;3.83;1.83;;;1.40;99.90;;;;;;6202014;23;20402;-87
2021/12/10 01:09:27;;;;;;;3.37;1.97;;;1.30;99.90;;;;;;6174381;23;20537;-87
2021/12/10 01:12:08;;;;;;;2.97;1.57;;;1.30;99.90;;;;;;6202051;23;21199;-87
2021/12/10 01:15:51;;;;;;;3.20;1.73;;;1.20;99.90;;;;;;6201156;23;20451;-87
2021/12/10 01:26:21;;;;;;;2.10;1.50;;;0.50;99.90;;;;;;6201475;23;20388;-87
2021/12/10 01:28:57;;;;;;;3.97;1.80;;;0.40;99.90;;;;;;6174308;23;20410;-87
2021/12/10 01:31:23;;;;;;;2.03;1.73;;;0.30;99.90;;;;;;6174933;23;20453;-87
2021/12/10 01:33:53;;;;;;;3.03;2.07;;;0.20;99.90;;;;;;6173752;23;20453;-87
2021/12/10 01:36:20;;;;;;;4.43;1.63;;;0.20;99.90;;;;;;6174007;23;20394;-87
2021/12/10 01:38:48;;;;;;;3.77;1.70;;;0.20;99.90;;;;;;6173511;23;20509;-87
2021/12/10 01:41:18;;;;;;;2.50;1.80;;;0.30;99.90;;;;;;6172914;23;20880;-87
2021/12/10 01:43:47;;;;;;;3.23;1.63;;;0.30;99.90;;;;;;6172578;23;20427;-87
2021/12/10 01:46:27;;;;;;;2.43;1.67;;;0.20;99.90;;;;;;6174661;23;20405;-87
2021/12/10 01:49:05;;;;;;;2.50;1.90;;;0.10;99.90;;;;;;6201163;23;20396;-86
2021/12/10 01:51:37;;;;;;;2.57;1.43;;;0.00;99.90;;;;;;6173156;23;20442;-87
2021/12/10 01:54:13;;;;;;;1.50;1.33;;;0.00;99.90;;;;;;6172928;23;20507;-87
2021/12/10 01:56:40;;;;;;;3.87;1.87;;;0.00;99.90;;;;;;6174174;23;20403;-87
2021/12/10 01:59:12;;;;;;;2.20;1.63;;;0.00;99.90;;;;;;6173560;23;20450;-87
2021/12/10 02:01:45;;;;;;;3.30;1.80;;;-0.10;99.90;;;;;;6172434;23;20485;-86
2021/12/10 02:04:14;;;;;;;3.53;1.40;;;-0.20;99.90;;;;;;6173797;23;20395;-86
2021/12/10 02:06:41;;;;;;;2.43;1.30;;;-0.20;99.90;;;;;;6173544;23;20726;-87
2021/12/10 02:09:08;;;;;;;3.23;1.70;;;-0.20;99.90;;;;;;6173037;23;20448;-87
2021/12/10 02:11:34;;;;;;;3.23;1.63;;;-0.10;99.90;;;;;;6172881;23;20541;-87
2021/12/10 02:13:59;;;;;;;4.80;1.80;;;0.00;99.90;;;;;;6172376;23;20484;-87
2021/12/10 02:16:25;;;;;;;2.83;1.40;;;0.20;99.90;;;;;;6173406;23;20494;-86
2021/12/10 02:18:52;;;;;;;3.63;1.10;;;0.50;99.90;;;;;;6172714;23;20160;-86
2021/12/10 02:21:24;;;;;;;4.00;1.30;;;0.50;99.90;;;;;;6174364;23;20405;-86
2021/12/10 02:23:56;;;;;;;1.90;1.37;;;0.60;99.90;;;;;;6172248;23;20885;-87
2021/12/10 02:26:37;;;;;;;2.60;1.60;;;0.70;99.90;;;;;;6173625;23;20742;-86
2021/12/10 02:29:04;;;;;;;2.83;1.70;;;0.80;99.90;;;;;;6172658;23;20398;-86
2021/12/10 02:31:30;;;;;;;3.63;1.90;;;0.80;99.90;;;;;;6172578;23;20736;-86
2021/12/10 02:33:56;;;;;;;2.70;1.30;;;0.70;99.90;;;;;;6171268;23;21157;-86
2021/12/10 02:36:23;;;;;;;4.20;1.90;;;0.70;99.90;;;;;;6173393;23;20391;-87
2021/12/10 02:38:52;;;;;;;3.30;1.73;;;0.70;99.90;;;;;;6171112;23;20419;-86
2021/12/10 02:41:21;;;;;;;3.80;1.53;;;0.60;99.90;;;;;;6173988;23;20433;-86
2021/12/10 02:43:47;;;;;;;2.40;1.40;;;0.60;99.90;;;;;;6174491;23;20813;-86
2021/12/10 02:46:13;;;;;;;5.07;2.10;;;0.70;99.90;;;;;;6173005;23;20407;-87
2021/12/10 02:48:40;;;;;;;4.00;1.87;;;0.80;99.90;;;;;;6173500;23;20467;-87
2021/12/10 02:51:07;;;;;;;3.90;1.60;;;0.70;99.90;;;;;;6174371;23;20442;-87
2021/12/10 02:53:40;;;;;;;3.13;2.27;;;0.50;99.90;;;;;;6174641;23;20395;-86
2021/12/10 02:56:06;;;;;;;5.27;1.87;;;0.40;99.90;;;;;;6173539;23;21196;-87
2021/12/10 02:58:32;;;;;;;3.73;1.87;;;0.20;99.90;;;;;;6172803;23;20963;-87
2021/12/10 03:01:24;;;;;;;3.80;2.30;;;0.20;99.90;;;;;;6172977;23;20395;-86
2021/12/10 03:03:50;;;;;;;2.50;2.10;;;0.20;99.90;;;;;;6157870;23;20404;-86
2021/12/10 03:06:19;;;;;;;5.63;2.40;;;0.30;99.90;;;;;;6174295;23;20722;-87
2021/12/10 03:08:48;;;;;;;2.70;1.53;;;0.20;99.90;;;;;;6173053;23;20566;-86
2021/12/10 03:11:17;;;;;;;3.00;1.67;;;0.10;99.90;;;;;;6172757;23;20521;-86
2021/12/10 03:13:42;;;;;;;1.53;1.43;;;-0.10;99.90;;;;;;6173069;23;20395;-86
2021/12/10 03:16:09;;;;;;;5.07;2.00;;;-0.20;99.90;;;;;;6172964;23;20465;-87
2021/12/10 03:18:37;;;;;;;1.90;1.63;;;-0.20;99.90;;;;;;6172362;23;20391;-86
2021/12/10 03:21:04;;;;;;;4.63;1.60;;;-0.30;99.90;;;;;;6173078;23;20398;-86
2021/12/10 03:23:30;;;;;;;3.83;1.70;;;-0.30;99.90;;;;;;6171777;23;20442;-86
2021/12/10 03:25:56;;;;;;;7.10;1.90;;;-0.30;99.90;;;;;;6172668;23;20443;-86
2021/12/10 03:28:21;;;;;;;1.90;1.53;;;-0.30;99.90;;;;;;6172392;23;21326;-86
2021/12/10 03:30:52;;;;;;;6.40;2.20;;;-0.20;99.90;;;;;;6172958;23;20403;-86
2021/12/10 03:33:26;;;;;;;6.27;1.80;;;-0.30;99.90;;;;;;6198230;23;20190;-86
2021/12/10 03:35:52;;;;;;;4.70;1.77;;;-0.40;99.90;;;;;;6173818;23;20399;-87
2021/12/10 03:38:24;;;;;;;2.33;1.67;;;-0.40;99.90;;;;;;6172714;23;20397;-87
2021/12/10 03:40:51;;;;;;;2.17;2.07;;;-0.40;99.90;;;;;;6173135;23;20168;-87
2021/12/10 03:43:18;;;;;;;1.70;1.60;;;-0.40;99.90;;;;;;6172737;23;20407;-87
2021/12/10 03:45:51;;;;;;;3.03;2.10;;;-0.40;99.90;;;;;;6171633;23;20400;-87
2021/12/10 03:48:27;;;;;;;3.27;1.90;;;-0.40;99.90;;;;;;6171692;23;20733;-87
2021/12/10 03:50:54;;;;;;;4.50;1.97;;;-0.50;99.90;;;;;;6173166;23;20929;-87
2021/12/10 03:53:20;;;;;;;3.90;1.80;;;-0.50;99.90;;;;;;6173988;23;20466;-87
2021/12/10 03:55:48;;;;;;;2.30;1.80;;;-0.50;99.90;;;;;;6173961;23;20907;-87
2021/12/10 03:58:14;;;;;;;6.87;2.80;;;-0.50;99.90;;;;;;6174355;23;20391;-87
2021/12/10 04:00:44;;;;;;;3.30;2.80;;;-0.60;99.90;;;;;;6172458;23;20474;-86
2021/12/10 04:03:11;;;;;;;3.70;2.90;;;-0.60;99.90;;;;;;6172046;23;20486;-87
2021/12/10 04:05:40;;;;;;;4.27;2.87;;;-0.60;99.90;;;;;;6173790;23;20785;-86
2021/12/10 04:08:06;;;;;;;6.07;3.13;;;-0.60;99.90;;;;;;6173493;23;20403;-87
2021/12/10 04:10:32;;;;;;;6.50;3.63;;;-0.50;99.90;;;;;;6173716;23;20417;-87
2021/12/10 04:12:58;;;;;;;7.77;3.97;;;-0.40;99.90;;;;;;6172843;23;20406;-87
2021/12/10 04:15:34;;;;;;;10.30;4.20;;;-0.30;99.90;;;;;;6172902;23;20409;-87
2021/12/10 04:18:01;;;;;;;4.63;3.23;;;-0.20;99.90;;;;;;6172792;23;20167;-87
2021/12/10 04:20:31;;;;;;;3.73;2.93;;;-0.10;99.90;;;;;;6172573;23;20486;-87
2021/12/10 04:22:59;;;;;;;4.53;3.73;;;0.00;99.90;;;;;;6172434;23;20403;-87
2021/12/10 04:25:26;;;;;;;4.50;3.77;;;0.00;99.90;;;;;;6171109;23;20399;-86
2021/12/10 04:27:59;;;;;;;4.80;3.60;;;0.10;99.90;;;;;;6166911;23;20407;-87
2021/12/10 04:30:26;;;;;;;7.97;3.83;;;0.20;99.90;;;;;;6171499;23;20433;-87
2021/12/10 04:32:53;;;;;;;8.23;4.23;;;0.20;99.90;;;;;;6172653;23;20474;-86
2021/12/10 04:35:19;;;;;;;5.77;3.67;;;0.10;99.90;;;;;;6173002;23;20394;-86
2021/12/10 04:37:51;;;;;;;5.03;3.60;;;0.20;99.90;;;;;;6171436;23;20407;-87
2021/12/10 04:40:21;;;;;;;11.20;4.30;;;0.10;99.90;;;;;;6169629;23;20406;-86
2021/12/10 04:42:46;;;;;;;9.63;4.00;;;0.10;99.90;;;;;;6172055;23;20489;-87
2021/12/10 04:45:17;;;;;;;7.57;4.80;;;0.10;99.90;;;;;;6173177;23;20927;-86
2021/12/10 04:47:44;;;;;;;5.27;4.37;;;0.10;99.90;;;;;;6171696;23;20239;-87
2021/12/10 04:50:11;;;;;;;5.57;4.20;;;0.00;99.90;;;;;;6171832;23;20422;-87
2021/12/10 04:52:37;;;;;;;4.63;3.73;;;-0.10;99.90;;;;;;6172395;23;20443;-86
2021/12/10 04:55:08;;;;;;;6.20;4.17;;;-0.10;99.90;;;;;;6173117;23;20871;-86
2021/12/10 04:57:34;;;;;;;6.57;3.70;;;0.10;99.90;;;;;;6172670;23;20583;-89
2021/12/10 05:00:00;;;;;;;4.90;3.80;;;0.00;99.90;;;;;;6171951;23;20386;-87
2021/12/10 05:02:28;;;;;;;6.13;3.73;;;0.00;99.90;;;;;;6172645;23;20537;-86
2021/12/10 05:04:57;;;;;;;5.80;4.33;;;-0.20;99.90;;;;;;6173455;23;20562;-86
2021/12/10 05:07:23;;;;;;;8.10;4.23;;;-0.30;99.90;;;;;;6174657;23;20761;-86
2021/12/10 05:09:49;;;;;;;5.40;3.80;;;-0.30;99.90;;;;;;6175063;23;20399;-86
2021/12/10 05:12:19;;;;;;;6.30;4.00;;;-0.30;99.90;;;;;;6173484;23;20819;-87
2021/12/10 05:14:45;;;;;;;4.77;3.93;;;-0.50;99.90;;;;;;6170379;23;20395;-87
2021/12/10 05:17:10;;;;;;;6.37;4.40;;;-0.50;99.90;;;;;;6174025;23;20438;-87
2021/12/10 05:19:38;;;;;;;5.20;3.97;;;-0.50;99.90;;;;;;6172299;23;20206;-86
2021/12/10 05:22:07;;;;;;;10.00;4.10;;;-0.50;99.90;;;;;;6172945;23;20514;-87
2021/12/10 05:24:33;;;;;;;5.03;4.10;;;-0.60;99.90;;;;;;6173016;23;20698;-87
2021/12/10 05:27:00;;;;;;;7.13;5.60;;;-0.50;99.90;;;;;;6174282;23;21384;-86
2021/12/10 05:29:27;;;;;;;6.10;4.50;;;-0.50;99.90;;;;;;6175443;23;20399;-87
2021/12/10 05:31:55;;;;;;;6.63;5.00;;;-0.40;99.90;;;;;;6173652;23;20793;-86
2021/12/10 05:34:21;;;;;;;9.00;4.60;;;-0.30;99.90;;;;;;6175143;23;20464;-86
2021/12/10 05:36:46;;;;;;;8.50;5.10;;;-0.10;99.90;;;;;;6176268;23;20460;-86
2021/12/10 05:39:14;;;;;;;6.33;4.10;;;0.10;99.90;;;;;;6174524;23;20722;-86
2021/12/10 05:41:40;;;;;;;9.80;4.97;;;0.20;99.90;;;;;;6173277;23;20543;-86
2021/12/10 05:44:06;;;;;;;6.03;4.60;;;0.50;99.90;;;;;;6175612;23;20401;-86
2021/12/10 05:46:32;;;;;;;9.53;5.73;;;0.60;99.90;;;;;;6149449;23;20485;-86
2021/12/10 05:48:58;;;;;;;7.00;5.47;;;0.70;99.90;;;;;;6174757;23;20706;-87
2021/12/10 05:51:27;;;;;;;10.00;5.50;;;0.70;99.90;;;;;;6174461;23;20522;-86
2021/12/10 05:53:53;;;;;;;8.97;5.50;;;0.60;99.90;;;;;;6174760;23;20553;-87
2021/12/10 05:56:19;;;;;;;12.30;7.40;;;0.60;99.90;;;;;;6174184;23;20897;-87
2021/12/10 05:58:45;;;;;;;14.73;10.63;;;0.50;99.90;;;;;;6172680;23;20395;-87
2021/12/10 06:01:18;;;;;;;10.93;6.43;;;0.30;99.90;;;;;;6172882;23;20190;-86
2021/12/10 06:03:51;;;;;;;6.87;5.40;;;0.20;99.90;;;;;;6171932;23;20379;-87
2021/12/10 06:06:19;;;;;;;9.50;6.00;;;0.00;99.90;;;;;;6172400;23;20449;-87
2021/12/10 06:08:45;;;;;;;8.67;5.63;;;-0.20;99.90;;;;;;6171731;23;20394;-86
2021/12/10 06:11:10;;;;;;;11.23;6.27;;;-0.20;99.90;;;;;;6170671;23;20529;-87
2021/12/10 06:13:36;;;;;;;5.87;4.13;;;-0.30;99.90;;;;;;6171724;23;20218;-87
2021/12/10 06:16:03;;;;;;;6.40;4.30;;;-0.30;99.90;;;;;;6173575;23;20291;-86
2021/12/10 06:18:29;;;;;;;8.33;4.73;;;-0.30;99.90;;;;;;6172747;23;20250;-86
2021/12/10 06:20:55;;;;;;;6.53;5.10;;;-0.40;99.90;;;;;;6173995;23;20545;-86
2021/12/10 06:23:22;;;;;;;7.27;4.17;;;-0.50;99.90;;;;;;6173386;23;20171;-86
2021/12/10 06:25:48;;;;;;;7.17;4.83;;;-0.60;99.90;;;;;;6174498;23;20869;-86
2021/12/10 06:28:15;;;;;;;14.23;5.43;;;-0.70;99.90;;;;;;6174660;23;20383;-86
2021/12/10 06:30:44;;;;;;;9.43;5.23;;;-0.70;99.90;;;;;;6173598;23;20490;-86
2021/12/10 06:33:16;;;;;;;8.40;5.77;;;-0.70;99.90;;;;;;6173400;23;20406;-86
2021/12/10 06:35:49;;;;;;;5.43;4.57;;;-0.70;99.90;;;;;;6174435;23;20486;-86
2021/12/10 06:38:18;;;;;;;6.37;4.60;;;-0.60;99.90;;;;;;6174518;23;20856;-86
2021/12/10 06:40:51;;;;;;;7.00;4.60;;;-0.60;99.90;;;;;;6169814;23;20411;-87
2021/12/10 06:43:22;;;;;;;8.27;4.97;;;-0.60;99.90;;;;;;6173019;23;20406;-86
2021/12/10 06:45:51;;;;;;;8.00;5.30;;;-0.50;99.90;;;;;;6174382;23;20391;-86
2021/12/10 06:48:18;;;;;;;9.50;5.50;;;-0.60;99.90;;;;;;6173344;23;20403;-86
2021/12/10 06:50:57;;;;;;;10.20;5.73;;;-0.50;99.90;;;;;;6171648;23;20472;-86
2021/12/10 06:53:26;;;;;;;13.93;6.13;;;-0.30;99.90;;;;;;6172727;23;20406;-86
2021/12/10 06:55:54;;;;;;;7.90;5.70;;;-0.20;99.90;;;;;;6172355;23;20395;-87
2021/12/10 06:58:23;;;;;;;5.30;4.60;;;0.00;99.90;;;;;;6150569;23;20407;-86
2021/12/10 07:00:55;;;;;;;8.07;5.00;;;0.00;99.90;;;;;;6172977;23;20391;-87
2021/12/10 07:03:31;;;;;;;5.97;4.70;;;0.10;99.90;;;;;;6172178;23;20464;-86
2021/12/10 07:06:04;;;;;;;7.63;5.33;;;0.20;99.90;;;;;;6174017;23;20892;-86
2021/12/10 07:08:37;;;;;;;6.27;4.50;;;0.20;99.90;;;;;;6173824;23;20417;-86
2021/12/10 07:11:05;;;;;;;5.37;4.33;;;0.40;99.90;;;;;;6172565;23;20935;-86
2021/12/10 07:13:33;;;;;;;4.93;3.50;;;0.50;99.90;;;;;;6148518;23;20402;-86
2021/12/10 07:15:59;;;;;;;5.70;4.30;;;0.50;99.90;;;;;;6174924;23;20403;-86
2021/12/10 07:18:26;;;;;;;5.07;3.87;;;0.40;99.90;;;;;;6201358;23;20973;-86
2021/12/10 07:20:54;;;;;;;6.67;3.70;;;0.20;99.90;;;;;;6173456;23;20399;-86
2021/12/10 07:23:22;;;;;;;6.17;3.77;;;0.00;99.90;;;;;;6173373;23;20737;-86
2021/12/10 07:26:08;;;;;;;5.07;3.27;;;0.00;99.90;;;;;;6172680;23;20391;-86
2021/12/10 07:28:34;;;;;;;3.67;2.83;;;0.00;99.90;;;;;;6171356;23;20734;-86
2021/12/10 07:31:03;;;;;;;6.83;3.30;;;0.10;99.90;;;;;;6173847;23;21450;-87
2021/12/10 07:33:30;;;;;;;4.80;3.83;;;0.20;99.90;;;;;;6174002;23;20399;-86
2021/12/10 07:35:57;;;;;;;4.60;3.53;;;0.20;99.90;;;;;;6149765;23;20399;-86
2021/12/10 07:38:23;;;;;;;4.00;3.20;;;0.30;99.90;;;;;;6200676;23;20477;-86
2021/12/10 07:40:51;;;;;;;4.00;3.00;;;0.30;99.90;;;;;;6174646;23;20588;-86
2021/12/10 07:43:21;;;;;;;4.10;2.40;;;0.40;99.90;;;;;;6200047;23;20530;-87
2021/12/10 07:45:48;;;;;;;2.00;1.80;;;0.50;99.90;;;;;;6172970;23;20394;-86
2021/12/10 07:48:18;;;;;;;2.87;2.10;;;0.90;99.90;;;;;;6173595;23;20477;-85
2021/12/10 07:50:53;;;;;;;2.23;2.03;;;1.00;99.90;;;;;;6172882;23;20414;-86
2021/12/10 07:53:20;;;;;;;3.53;2.47;;;1.10;99.90;;;;;;6174262;23;20421;-86
2021/12/10 07:56:10;;;;;;;4.07;1.83;;;1.30;99.90;;;;;;6173107;23;20402;-86
2021/12/10 07:58:40;;;;;;;4.03;2.73;;;1.50;99.90;;;;;;6200878;23;20402;-86
2021/12/10 08:01:18;;;;;;;23.37;10.40;;;1.60;99.90;;;;;;6172633;23;20404;-86
2021/12/10 08:03:45;;;;;;;9.43;5.00;;;1.60;99.90;;;;;;6171058;23;20738;-86
2021/12/10 08:06:15;;;;;;;16.20;8.37;;;1.60;99.90;;;;;;6169463;23;20972;-88
2021/12/10 08:08:41;;;;;;;5.67;3.37;;;1.60;99.90;;;;;;6146733;23;20412;-88
2021/12/10 08:11:14;;;;;;;4.40;3.23;;;1.70;99.90;;;;;;6173513;23;20855;-90
2021/12/10 08:13:41;;;;;;;4.73;3.10;;;1.70;99.90;;;;;;6195880;23;20226;-88
2021/12/10 08:16:08;;;;;;;6.03;3.03;;;1.70;99.90;;;;;;6170250;23;20409;-89
2021/12/10 08:18:33;;;;;;;3.47;2.50;;;1.60;99.90;;;;;;6170279;23;20939;-90
2021/12/10 08:21:00;;;;;;;4.40;3.10;;;1.50;99.90;;;;;;6171991;23;20452;-90
2021/12/10 08:23:29;;;;;;;3.73;3.10;;;1.60;99.90;;;;;;6171524;23;20472;-90
2021/12/10 08:26:04;;;;;;;6.63;4.70;;;1.70;99.90;;;;;;6171433;23;20403;-91
2021/12/10 08:28:33;;;;;;;5.30;4.23;;;1.80;99.90;;;;;;6146817;23;20903;-90
2021/12/10 08:31:01;;;;;;;6.00;4.13;;;1.80;99.90;;;;;;6168658;23;20885;-89
2021/12/10 08:33:30;;;;;;;5.90;5.30;;;1.70;99.90;;;;;;6170401;23;20473;-89
2021/12/10 08:39:31;;;;;;;6.20;3.73;;;1.70;99.90;;;;;;6181717;23;20787;-89
2021/12/10 08:41:58;;;;;;;5.80;4.50;;;1.80;99.90;;;;;;6175847;23;20399;-90
2021/12/10 08:44:44;;;;;;;4.67;4.13;;;1.90;99.90;;;;;;6178755;23;20966;-89
2021/12/10 08:47:12;;;;;;;5.30;4.20;;;2.00;99.90;;;;;;6173996;23;20410;-88
2021/12/10 08:49:39;;;;;;;7.07;4.20;;;2.10;99.90;;;;;;6173238;23;20401;-89
2021/12/10 08:52:11;;;;;;;4.53;3.27;;;2.30;99.90;;;;;;6174775;23;20442;-89
2021/12/10 08:54:38;;;;;;;4.10;3.20;;;2.40;99.90;;;;;;6173833;23;20452;-89
2021/12/10 08:57:18;;;;;;;3.10;2.80;;;2.50;99.90;;;;;;6174393;23;20506;-89
2021/12/10 08:59:59;;;;;;;1.93;1.50;;;2.70;99.90;;;;;;6175266;23;20394;-90
2021/12/10 09:02:24;;;;;;;2.73;1.97;;;2.80;99.10;;;;;;6173889;23;20461;-88
2021/12/10 09:04:50;;;;;;;2.60;1.70;;;3.00;98.80;;;;;;6174787;23;20493;-88
2021/12/10 09:07:19;;;;;;;3.63;2.27;;;2.90;98.70;;;;;;6174831;23;20178;-88
2021/12/10 09:09:46;;;;;;;5.27;2.70;;;2.80;99.80;;;;;;6175325;23;20410;-88
2021/12/10 09:12:27;;;;;;;4.90;2.47;;;2.70;99.90;;;;;;6174674;23;20802;-87
2021/12/10 09:15:28;;;;;;;4.07;2.40;;;2.60;99.90;;;;;;6174336;23;20402;-87
2021/12/10 09:17:58;;;;;;;2.97;2.63;;;2.60;99.90;;;;;;6172587;23;20410;-90
2021/12/10 09:20:35;;;;;;;5.20;3.07;;;2.60;99.90;;;;;;6174052;23;20402;-88
2021/12/10 09:23:02;;;;;;;4.57;2.80;;;2.50;99.90;;;;;;6174295;23;20394;-89
2021/12/10 09:25:30;;;;;;;10.13;3.30;;;2.60;99.90;;;;;;6173355;23;20884;-88
2021/12/10 09:27:59;;;;;;;4.80;2.70;;;2.60;99.90;;;;;;6173006;23;20395;-88
2021/12/10 09:30:30;;;;;;;5.17;3.40;;;2.70;99.90;;;;;;6199128;23;20398;-88
2021/12/10 09:32:56;;;;;;;7.17;3.40;;;2.60;99.90;;;;;;6170784;23;20504;-87
2021/12/10 09:35:24;;;;;;;3.97;3.60;;;2.70;99.90;;;;;;6170004;23;20391;-88
2021/12/10 09:37:53;;;;;;;5.67;4.50;;;2.80;99.90;;;;;;6171741;23;20717;-87
2021/12/10 09:40:35;;;;;;;4.30;3.90;;;2.90;99.90;;;;;;6199107;23;20481;-88
2021/12/10 09:43:12;;;;;;;3.73;2.93;;;3.10;99.90;;;;;;6173603;23;20464;-88
2021/12/10 09:45:42;;;;;;;4.43;3.40;;;3.20;99.90;;;;;;6173527;23;20403;-88
2021/12/10 09:48:10;;;;;;;2.57;1.90;;;3.20;99.90;;;;;;6173555;23;20409;-89
2021/12/10 09:50:47;;;;;;;3.30;2.97;;;3.10;99.90;;;;;;6174687;23;20633;-88
2021/12/10 09:53:14;;;;;;;7.33;3.10;;;3.10;99.90;;;;;;6172051;23;20413;-88
2021/12/10 09:55:47;;;;;;;3.67;2.20;;;3.20;99.90;;;;;;6171348;23;20497;-88
2021/12/10 09:58:15;;;;;;;6.57;4.03;;;3.30;97.80;;;;;;6174093;23;20407;-88
2021/12/10 10:00:56;;;;;;;5.07;2.87;;;3.40;97.50;;;;;;6173876;23;20564;-88
2021/12/10 10:07:12;;;;;;;9.93;5.93;;;3.60;96.50;;;;;;6177027;23;20482;-88
2021/12/10 10:09:41;;;;;;;4.43;2.20;;;3.70;96.70;;;;;;6159151;23;20491;-88
2021/12/10 10:12:11;;;;;;;5.63;3.50;;;3.70;95.90;;;;;;6175338;23;20442;-88
2021/12/10 10:14:44;;;;;;;2.40;1.60;;;3.80;95.80;;;;;;6173106;23;20458;-88
2021/12/10 10:17:11;;;;;;;6.60;4.07;;;3.80;95.00;;;;;;6174254;23;20406;-89
2021/12/10 10:20:00;;;;;;;5.70;3.90;;;3.80;95.40;;;;;;6173943;23;20565;-88
2021/12/10 10:22:31;;;;;;;1.73;1.20;;;3.80;95.70;;;;;;6171527;23;20410;-89
2021/12/10 10:24:58;;;;;;;1.10;1.07;;;3.80;94.90;;;;;;6173487;23;20866;-89
2021/12/10 10:27:45;;;;;;;0.93;0.83;;;3.80;94.70;;;;;;6198269;23;20742;-90
2021/12/10 10:30:25;;;;;;;1.60;0.83;;;3.70;94.10;;;;;;6172849;23;20680;-88
2021/12/10 10:33:20;;;;;;;1.87;0.97;;;3.80;94.20;;;;;;6173104;23;20453;-88
2021/12/10 10:35:51;;;;;;;2.50;0.90;;;3.80;94.20;;;;;;6129065;23;20408;-88
2021/12/10 10:38:50;;;;;;;;;;;;;;;;;;;;;
2021/12/10 10:45:17;;;;;;;2.37;1.10;;;3.90;93.60;;;;;;6127645;23;20390;-88
2021/12/10 10:51:42;;;;;;;1.37;0.87;;;4.10;93.90;;;;;;6141261;23;20803;-88
2021/12/10 10:58:02;;;;;;;1.37;0.90;;;4.20;94.80;;;;;;6039125;23;20400;-89
2021/12/10 11:01:15;;;;;;;1.43;1.20;;;4.30;94.10;;;;;;6200323;23;20751;-88
2021/12/10 11:03:40;;;;;;;4.93;1.30;;;4.50;94.40;;;;;;6193003;23;20445;-89
2021/12/10 11:06:13;;;;;;;1.53;1.43;;;4.50;93.10;;;;;;6168586;23;20730;-89
2021/12/10 11:09:15;;;;;;;2.87;1.77;;;4.40;93.50;;;;;;6170994;23;20413;-88
2021/12/10 11:15:38;;;;;;;3.07;1.93;;;4.30;93.70;;;;;;6117777;23;20742;-89
2021/12/10 11:18:03;;;;;;;4.00;2.73;;;4.20;94.20;;;;;;6198120;23;20466;-89
2021/12/10 11:21:02;;;;;;;;;;;;;;;;;;;;;
2021/12/10 11:23:28;;;;;;;2.47;1.90;;;4.20;94.60;;;;;;6197469;23;20486;-88
2021/12/10 11:31:21;;;;;;;1.57;1.37;;;4.00;93.00;;;;;;6197303;23;20829;-88
2021/12/10 11:33:50;;;;;;;2.37;2.00;;;4.00;93.40;;;;;;6174589;23;20440;-88
2021/12/10 11:36:52;;;;;;;;;;;;;;;;;;;;;
2021/12/10 11:39:46;;;;;;;1.50;1.20;;;3.90;94.50;;;;;;6206189;23;20469;-89
2021/12/10 11:42:56;;;;;;;2.57;1.77;;;3.70;95.50;;;;;;6180941;23;20394;-88
2021/12/10 11:48:27;;;;;;;0.70;0.70;;;3.40;97.60;;;;;;6184942;23;20877;-89
2021/12/10 11:51:01;;;;;;;3.37;1.83;;;3.20;99.40;;;;;;6179415;23;20408;-87
2021/12/10 11:53:36;;;;;;;2.40;1.83;;;3.10;99.90;;;;;;6179607;23;20405;-89
2021/12/10 11:56:11;;;;;;;2.13;1.17;;;2.90;99.90;;;;;;6179413;23;20741;-88
2021/12/10 11:58:37;;;;;;;2.00;1.03;;;2.60;99.90;;;;;;6177348;23;20433;-89
2021/12/10 12:01:04;;;;;;;6.10;3.20;;;2.50;99.90;;;;;;6175426;23;20409;-89
2021/12/10 12:03:33;;;;;;;7.70;5.00;;;2.30;99.90;;;;;;6172204;23;20165;-89
2021/12/10 12:05:59;;;;;;;20.40;11.37;;;2.20;99.90;;;;;;6172321;23;20436;-91
2021/12/10 12:08:26;;;;;;;4.87;2.80;;;2.20;99.90;;;;;;6172037;23;20792;-88
2021/12/10 12:10:56;;;;;;;2.07;1.70;;;2.20;99.90;;;;;;6175321;23;20888;-94
2021/12/10 12:13:30;;;;;;;1.40;1.30;;;2.20;99.90;;;;;;6175912;23;20428;-91
2021/12/10 12:16:14;;;;;;;1.90;1.80;;;2.10;99.90;;;;;;6202057;23;20478;-89
2021/12/10 12:18:49;;;;;;;2.97;1.47;;;2.00;99.90;;;;;;6174108;23;20851;-88
2021/12/10 12:27:08;;;;;;;3.37;1.57;;;2.00;99.90;;;;;;6203219;23;20399;-88
2021/12/10 12:29:35;;;;;;;4.10;1.80;;;1.90;99.90;;;;;;6176141;23;20413;-89
2021/12/10 12:32:01;;;;;;;2.00;1.40;;;2.00;99.90;;;;;;6173285;23;20444;-88
2021/12/10 12:34:28;;;;;;;1.47;1.33;;;2.10;99.90;;;;;;6173729;23;20407;-88
2021/12/10 12:36:58;;;;;;;3.00;1.73;;;2.10;99.90;;;;;;6173053;23;20224;-88
2021/12/10 12:39:39;;;;;;;1.50;1.40;;;2.10;99.90;;;;;;6174519;23;20711;-88
2021/12/10 12:42:17;;;;;;;1.40;1.30;;;2.10;99.90;;;;;;6175280;23;20403;-88
2021/12/10 12:44:42;;;;;;;1.47;1.20;;;2.10;99.90;;;;;;6174305;23;20416;-88
2021/12/10 12:47:19;;;;;;;1.53;1.43;;;2.20;99.90;;;;;;6175142;23;20764;-88
2021/12/10 12:49:48;;;;;;;1.50;1.40;;;2.30;99.90;;;;;;6172933;23;20412;-88
2021/12/10 12:52:31;;;;;;;1.90;1.60;;;2.20;99.90;;;;;;6171675;23;20846;-89
2021/12/10 12:55:13;;;;;;;1.50;1.40;;;2.20;99.90;;;;;;6173019;23;20400;-89
2021/12/10 12:57:54;;;;;;;1.60;1.43;;;2.20;99.90;;;;;;6174449;23;20397;-88
2021/12/10 13:00:25;;;;;;;2.50;2.30;;;2.40;99.90;;;;;;6174062;23;20584;-86
2021/12/10 13:03:21;;;;;;;1.60;1.50;;;2.50;99.90;;;;;;6174575;23;20706;-87
2021/12/10 13:05:55;;;;;;;2.03;1.40;;;2.50;99.90;;;;;;6149362;23;20421;-85
2021/12/10 13:08:27;;;;;;;1.97;1.57;;;2.70;99.90;;;;;;6174984;23;20753;-86
2021/12/10 13:11:11;;;;;;;1.43;1.30;;;2.80;99.90;;;;;;6174439;23;20456;-86
2021/12/10 13:13:41;;;;;;;2.20;1.87;;;2.90;99.90;;;;;;6174263;23;20544;-86
2021/12/10 13:16:08;;;;;;;2.13;1.80;;;3.10;99.90;;;;;;6173619;23;20488;-85
2021/12/10 13:18:37;;;;;;;2.40;1.90;;;3.10;99.90;;;;;;6171093;23;20465;-86
2021/12/10 13:21:08;;;;;;;3.80;3.00;;;3.20;99.90;;;;;;6171624;23;20971;-87
2021/12/10 13:23:35;;;;;;;5.80;4.00;;;3.20;99.90;;;;;;6171628;23;20399;-87
2021/12/10 13:26:04;;;;;;;6.27;4.20;;;3.30;99.90;;;;;;6173573;23;20431;-87
2021/12/10 13:28:30;;;;;;;2.03;1.80;;;3.40;99.90;;;;;;6172984;23;20426;-86
2021/12/10 13:31:02;;;;;;;2.83;2.63;;;3.30;99.90;;;;;;6173893;23;20390;-86
2021/12/10 13:33:32;;;;;;;3.33;3.03;;;3.10;99.90;;;;;;6173952;23;20176;-86
2021/12/10 13:36:02;;;;;;;5.23;2.83;;;3.10;99.90;;;;;;6174702;23;20427;-87
2021/12/10 13:38:29;;;;;;;2.90;2.27;;;3.10;99.90;;;;;;6172548;23;20415;-86
2021/12/10 13:40:57;;;;;;;4.97;4.47;;;3.10;99.90;;;;;;6172087;23;20445;-86
2021/12/10 13:43:23;;;;;;;6.40;5.80;;;3.00;99.90;;;;;;6173819;23;20967;-87
2021/12/10 13:45:59;;;;;;;5.00;4.03;;;3.00;99.90;;;;;;6173866;23;21219;-86
2021/12/10 13:48:42;;;;;;;6.30;3.67;;;2.90;99.90;;;;;;6168783;23;20396;-87
2021/12/10 13:51:13;;;;;;;5.13;3.53;;;2.90;99.90;;;;;;6172092;23;20748;-86
2021/12/10 13:53:39;;;;;;;7.50;3.50;;;2.90;99.90;;;;;;6172626;23;20687;-86
2021/12/10 13:56:12;;;;;;;3.80;2.93;;;2.80;99.90;;;;;;6172991;23;20482;-86
2021/12/10 13:58:49;;;;;;;3.33;2.60;;;2.70;99.90;;;;;;6174179;23;20460;-87
2021/12/10 14:01:22;;;;;;;3.30;2.97;;;2.70;99.90;;;;;;6174086;23;20402;-88
2021/12/10 14:04:02;;;;;;;2.70;2.40;;;2.80;99.90;;;;;;6173410;23;20457;-87
2021/12/10 14:06:42;;;;;;;2.50;2.30;;;2.80;99.90;;;;;;6173364;23;20804;-87